Accueil
METAR-TAF:

METAR-TAF

Aéroports :

Aéroport international Félix-Houphouët-Boigny

Abidjan, Côte d'Ivoire

latitude: 05-15N, longitude: 003-56W, altitude: 7 m

Observation

Le bulletin a été fait il y a 38 minutes, à 07:30 UTC
Vent 2 kt de direction variable
Température 27°C
Humidité 94%
Pression 1011 hPa
Visibilité: 7000 m
Nuages épars à une hauteur de 1000 ft

METAR: DIAP 230730Z VRB02KT 7000 SCT010 27/26 Q1011 NOSIG

Heure: 08:08 (08:08 UTC)

Prévision

Le bulletin a été fait il y a 3 heures et 8 minutes, à 05:00 UTC
Prévision valable du 23 à 06 UTC au 24 à 12 UTC
Vent 6 kt de ouest/sud-ouest
Visibilité 10 km ou plus
Nuages épars à une hauteur de 1200 ft
Temporairement
du 23 à 18 UTC au 23 à 22 UTC
Nuages fragmentés à une hauteur de 1200 ft

TAF: DIAP 230500Z 2306/2412 24006KT 9999 SCT012 TEMPO 2318/2322 BKN012

Observations et prévisions météorologiques de plus de 4000 aéroports (messages METAR et TAF).

Les stations disponibles sont représentées par des disques jaunes et rouges sur la carte.

Passer la souris dessus pour voir le nom de la station.

Cliquer dessus pour voir les observations et prévisions météorologiques.

Pour changer de carte: cliquez sur les boutons verts avec une croix noire pour zoomer, sur le bouton vert avec un tiret pour effectuer un zoom arrière, ou sur les flèches vertes pour les cartes adjacentes.


METAR-TAF: